createdAt,value
2022-08-26T00:00:53.752Z,15.61
2022-08-26T00:03:23.833Z,15.52
2022-08-26T00:05:59.879Z,15.83
2022-08-26T00:08:27.963Z,15.64
2022-08-26T00:10:56.020Z,15.72
2022-08-26T00:13:28.715Z,15.39
2022-08-26T00:15:57.398Z,15.63
2022-08-26T00:18:25.946Z,15.65
2022-08-26T00:20:55.313Z,15.61
2022-08-26T00:24:26.605Z,15.60
2022-08-26T00:26:52.405Z,15.45
2022-08-26T00:29:21.353Z,14.91
2022-08-26T00:31:50.708Z,15.25
2022-08-26T00:34:19.585Z,15.03
2022-08-26T00:36:49.341Z,15.24
2022-08-26T00:39:21.147Z,15.17
2022-08-26T00:41:50.214Z,15.14
2022-08-26T00:44:18.499Z,15.19
2022-08-26T00:46:53.990Z,15.17
2022-08-26T00:49:42.952Z,14.92
2022-08-26T00:52:17.006Z,15.01
2022-08-26T00:55:38.933Z,15.05
2022-08-26T00:58:08.816Z,15.00
2022-08-26T01:00:36.881Z,14.98
2022-08-26T01:03:05.500Z,15.01
2022-08-26T01:05:35.867Z,14.96
2022-08-26T01:08:04.395Z,15.01
2022-08-26T01:10:32.582Z,15.02
2022-08-26T01:13:10.437Z,14.90
2022-08-26T01:15:49.441Z,14.93
2022-08-26T01:18:18.996Z,14.89
2022-08-26T01:21:08.131Z,14.89
2022-08-26T01:23:42.987Z,14.60
2022-08-26T01:26:27.389Z,14.89
2022-08-26T01:28:59.020Z,14.81
2022-08-26T01:31:31.193Z,14.76
2022-08-26T01:34:11.153Z,14.70
2022-08-26T01:36:53.608Z,13.87
2022-08-26T01:39:22.019Z,14.66
2022-08-26T01:42:03.024Z,14.65
2022-08-26T01:44:38.885Z,14.65
2022-08-26T01:47:09.745Z,14.70
2022-08-26T01:49:38.479Z,14.60
2022-08-26T01:52:08.816Z,14.57
2022-08-26T01:54:39.244Z,14.43
2022-08-26T01:57:08.521Z,14.33
2022-08-26T01:59:36.798Z,13.89
2022-08-26T02:02:04.943Z,14.10
2022-08-26T02:04:48.176Z,14.42
2022-08-26T02:07:21.543Z,14.38
2022-08-26T02:12:31.842Z,14.26
2022-08-26T02:15:05.830Z,14.34
2022-08-26T02:17:44.778Z,14.33
2022-08-26T02:20:18.501Z,13.99
2022-08-26T02:22:48.035Z,14.10
2022-08-26T02:25:42.012Z,13.97
2022-08-26T02:28:12.777Z,14.22
2022-08-26T02:30:41.782Z,13.93
2022-08-26T02:33:10.726Z,14.20
2022-08-26T02:35:40.540Z,14.16
2022-08-26T02:38:11.235Z,13.94
2022-08-26T02:40:42.354Z,14.07
2022-08-26T02:43:12.558Z,14.05
2022-08-26T02:45:41.859Z,13.77
2022-08-26T02:48:17.209Z,13.80
2022-08-26T02:50:48.683Z,14.10
2022-08-26T02:53:23.205Z,14.10
2022-08-26T02:55:53.664Z,14.07
2022-08-26T02:58:21.685Z,14.00
2022-08-26T03:00:53.480Z,13.70
2022-08-26T03:03:23.668Z,13.97
2022-08-26T03:05:55.251Z,13.93
2022-08-26T03:08:23.569Z,13.86
2022-08-26T03:10:51.889Z,13.88
2022-08-26T03:13:19.877Z,13.90
2022-08-26T03:15:48.087Z,13.90
2022-08-26T03:18:16.421Z,13.88
2022-08-26T03:20:44.904Z,13.94
2022-08-26T03:23:13.029Z,13.62
2022-08-26T03:25:41.350Z,13.81
2022-08-26T03:28:09.555Z,13.64
2022-08-26T03:30:44.824Z,13.80
2022-08-26T03:33:15.325Z,13.58
2022-08-26T03:35:47.985Z,13.84
2022-08-26T03:38:22.544Z,13.77
2022-08-26T03:40:51.195Z,13.81
2022-08-26T03:43:21.612Z,13.44
2022-08-26T03:45:51.277Z,13.08
2022-08-26T03:48:19.543Z,13.89
2022-08-26T03:50:47.614Z,13.65
2022-08-26T03:53:17.269Z,13.88
2022-08-26T03:55:51.913Z,13.91
2022-08-26T03:58:21.506Z,14.02
2022-08-26T04:00:55.724Z,14.00
2022-08-26T04:03:44.703Z,14.00
2022-08-26T04:06:14.669Z,14.01
2022-08-26T04:08:54.963Z,14.11
2022-08-26T04:11:32.149Z,14.07
2022-08-26T04:14:09.800Z,14.15
2022-08-26T04:16:39.016Z,13.82
2022-08-26T04:19:07.406Z,14.23
2022-08-26T04:21:36.082Z,13.80
2022-08-26T04:24:12.202Z,14.37
2022-08-26T04:26:42.744Z,14.19
2022-08-26T04:29:24.135Z,14.54
2022-08-26T04:31:57.892Z,14.61
2022-08-26T04:34:28.984Z,14.71
2022-08-26T04:36:58.642Z,14.78
2022-08-26T04:39:28.137Z,14.80
2022-08-26T04:41:57.650Z,14.92
2022-08-26T04:44:29.877Z,14.77
2022-08-26T04:46:58.831Z,15.05
2022-08-26T04:49:27.715Z,15.50
2022-08-26T04:51:56.286Z,15.51
2022-08-26T04:54:26.244Z,16.05
2022-08-26T04:56:54.396Z,16.30
2022-08-26T04:59:23.214Z,16.56
2022-08-26T05:01:57.478Z,16.77
2022-08-26T05:04:25.936Z,17.12
2022-08-26T05:06:59.271Z,17.36
2022-08-26T05:09:30.941Z,17.28
2022-08-26T05:11:59.110Z,17.52
2022-08-26T05:14:27.345Z,17.64
2022-08-26T05:16:56.389Z,17.58
2022-08-26T05:19:24.895Z,18.21
2022-08-26T05:21:56.197Z,18.50
2022-08-26T05:24:24.686Z,18.65
2022-08-26T05:26:53.200Z,18.97
2022-08-26T05:29:21.592Z,19.06
2022-08-26T05:31:52.903Z,19.53
2022-08-26T05:34:24.075Z,19.62
2022-08-26T05:36:58.733Z,20.13
2022-08-26T05:39:26.976Z,20.44
2022-08-26T05:41:55.047Z,20.79
2022-08-26T05:44:23.321Z,21.07
2022-08-26T05:46:51.950Z,21.29
2022-08-26T05:49:20.485Z,21.66
2022-08-26T05:51:50.815Z,21.91
2022-08-26T05:54:22.041Z,22.08
2022-08-26T05:56:52.497Z,22.11
2022-08-26T05:59:21.398Z,22.48
2022-08-26T06:01:55.251Z,22.71
2022-08-26T06:04:27.430Z,23.14
2022-08-26T06:07:00.091Z,23.39
2022-08-26T06:09:28.456Z,23.66
2022-08-26T06:11:58.983Z,23.64
2022-08-26T06:14:27.244Z,23.76
2022-08-26T06:16:55.545Z,24.12
2022-08-26T06:19:23.816Z,24.16
2022-08-26T06:21:54.305Z,24.34
2022-08-26T06:24:42.010Z,24.93
2022-08-26T06:27:15.193Z,25.01
2022-08-26T06:29:43.581Z,24.65
2022-08-26T06:32:11.781Z,25.63
2022-08-26T06:34:43.107Z,25.63
2022-08-26T06:37:11.266Z,25.94
2022-08-26T06:39:42.231Z,25.92
2022-08-26T06:42:11.988Z,25.98
2022-08-26T06:44:44.881Z,26.56
2022-08-26T06:47:13.457Z,26.71
2022-08-26T06:49:41.867Z,26.71
2022-08-26T06:52:12.508Z,27.01
2022-08-26T06:54:44.332Z,27.15
2022-08-26T06:57:13.203Z,27.24
2022-08-26T06:59:42.730Z,27.47
2022-08-26T07:02:13.522Z,27.79
2022-08-26T07:04:43.125Z,27.87
2022-08-26T07:07:16.274Z,28.21
2022-08-26T07:09:44.420Z,28.25
2022-08-26T07:12:12.549Z,28.54
2022-08-26T07:14:41.529Z,28.54
2022-08-26T07:17:16.547Z,28.91
2022-08-26T07:19:46.164Z,28.89
2022-08-26T07:22:15.180Z,29.27
2022-08-26T07:24:44.834Z,29.52
2022-08-26T07:27:17.771Z,29.84
2022-08-26T07:29:46.837Z,29.99
2022-08-26T07:32:19.473Z,29.99
2022-08-26T07:34:49.365Z,30.46
2022-08-26T07:37:18.427Z,30.41
2022-08-26T07:39:48.654Z,30.67
2022-08-26T07:42:19.924Z,30.58
2022-08-26T07:44:48.293Z,30.35
2022-08-26T07:47:25.062Z,30.14
2022-08-26T07:49:57.709Z,31.10
2022-08-26T07:52:29.852Z,30.95
2022-08-26T07:55:01.039Z,31.48
2022-08-26T07:57:30.579Z,31.05
2022-08-26T07:59:59.825Z,31.60
2022-08-26T08:02:30.020Z,31.64
2022-08-26T08:04:59.750Z,32.17
2022-08-26T08:07:44.397Z,32.03
2022-08-26T08:10:21.436Z,32.08
2022-08-26T08:12:53.917Z,32.52
2022-08-26T08:15:26.843Z,32.92
2022-08-26T08:17:58.849Z,33.08
2022-08-26T08:20:30.184Z,33.08
2022-08-26T08:22:59.113Z,33.10
2022-08-26T08:25:27.833Z,33.10
2022-08-26T08:27:55.901Z,33.40
2022-08-26T08:30:25.195Z,33.35
2022-08-26T08:32:54.192Z,33.64
2022-08-26T08:35:26.582Z,33.67
2022-08-26T08:37:55.616Z,33.52
2022-08-26T08:40:27.850Z,33.38
2022-08-26T08:43:04.091Z,33.32
2022-08-26T08:46:04.587Z,33.35
2022-08-26T08:48:39.177Z,33.80
2022-08-26T08:51:22.463Z,33.93
2022-08-26T08:53:55.044Z,33.68
2022-08-26T08:56:49.959Z,33.76
2022-08-26T08:59:25.430Z,33.46
2022-08-26T09:02:46.146Z,33.39
2022-08-26T09:05:34.302Z,31.94
2022-08-26T09:08:11.612Z,31.47
2022-08-26T09:10:58.160Z,32.00
2022-08-26T09:13:28.225Z,32.10
2022-08-26T09:16:25.556Z,32.35
2022-08-26T09:18:59.557Z,32.35
2022-08-26T09:21:28.204Z,32.70
2022-08-26T09:23:57.431Z,32.78
2022-08-26T09:26:39.943Z,33.01
2022-08-26T09:29:25.995Z,32.91
2022-08-26T09:32:20.231Z,32.33
2022-08-26T09:35:08.183Z,32.93
2022-08-26T09:37:42.123Z,33.39
2022-08-26T09:40:36.406Z,32.14
2022-08-26T09:43:09.470Z,31.99
2022-08-26T09:45:39.777Z,32.20
2022-08-26T09:48:09.304Z,32.41
2022-08-26T09:51:00.306Z,32.52
2022-08-26T09:53:37.695Z,31.82
2022-08-26T09:56:25.898Z,31.90
2022-08-26T09:58:57.623Z,32.20
2022-08-26T10:01:42.168Z,31.96
2022-08-26T10:04:23.439Z,32.31
2022-08-26T10:07:05.866Z,32.47
2022-08-26T10:09:43.194Z,32.13
2022-08-26T10:12:21.703Z,32.43
2022-08-26T10:14:59.980Z,32.43
2022-08-26T10:17:46.579Z,32.29
2022-08-26T10:20:24.138Z,32.38
2022-08-26T10:23:23.386Z,32.09
2022-08-26T10:26:32.783Z,32.21
2022-08-26T10:29:23.580Z,32.19
2022-08-26T10:32:03.622Z,32.52
2022-08-26T10:34:35.199Z,33.08
2022-08-26T10:37:20.567Z,33.05
2022-08-26T10:40:02.867Z,33.53
2022-08-26T10:43:19.250Z,33.52
2022-08-26T10:45:57.857Z,32.95
2022-08-26T10:49:09.310Z,32.97
2022-08-26T10:51:53.214Z,32.22
2022-08-26T10:55:05.338Z,33.26
2022-08-26T10:58:05.960Z,31.98
2022-08-26T11:01:10.445Z,31.60
2022-08-26T11:03:54.286Z,32.67
2022-08-26T11:06:30.589Z,32.44
2022-08-26T11:09:05.894Z,32.62
2022-08-26T11:11:40.876Z,32.79
2022-08-26T11:14:18.160Z,33.15
2022-08-26T11:17:00.238Z,33.95
2022-08-26T11:19:59.485Z,33.41
2022-08-26T11:22:41.501Z,32.67
2022-08-26T11:25:29.960Z,33.22
2022-08-26T11:28:01.762Z,33.56
2022-08-26T11:30:41.145Z,33.54
2022-08-26T11:33:09.639Z,33.19
2022-08-26T11:35:38.539Z,33.08
2022-08-26T11:38:19.946Z,33.26
2022-08-26T11:41:21.139Z,33.99
2022-08-26T11:43:52.533Z,34.10
2022-08-26T11:46:28.879Z,34.30
2022-08-26T11:49:07.694Z,33.65
2022-08-26T11:51:40.361Z,32.76
2022-08-26T11:54:18.342Z,33.69
2022-08-26T11:57:11.798Z,34.06
2022-08-26T11:59:42.559Z,34.03
2022-08-26T12:02:17.909Z,34.25
2022-08-26T12:04:50.913Z,33.88
2022-08-26T12:07:26.145Z,34.45
2022-08-26T12:10:02.254Z,34.67
2022-08-26T12:12:38.931Z,33.47
2022-08-26T12:15:20.263Z,34.41
2022-08-26T12:18:03.551Z,34.26
2022-08-26T12:20:49.098Z,34.73
2022-08-26T12:23:35.289Z,34.65
2022-08-26T12:26:31.749Z,34.77
2022-08-26T12:29:10.819Z,34.39
2022-08-26T12:31:50.157Z,35.20
2022-08-26T12:34:19.074Z,35.11
2022-08-26T12:36:55.307Z,35.09
2022-08-26T12:39:38.678Z,34.29
2022-08-26T12:42:39.727Z,34.77
2022-08-26T12:45:09.226Z,35.46
2022-08-26T12:47:44.419Z,35.45
2022-08-26T12:50:27.621Z,35.72
2022-08-26T12:53:25.411Z,36.15
2022-08-26T12:55:58.128Z,36.13
2022-08-26T12:58:38.825Z,36.72
2022-08-26T13:01:07.281Z,36.31
2022-08-26T13:03:35.545Z,36.45
2022-08-26T13:06:30.089Z,35.30
2022-08-26T13:09:09.304Z,34.75
2022-08-26T13:11:40.742Z,34.46
2022-08-26T13:14:23.752Z,34.30
2022-08-26T13:16:53.492Z,33.38
2022-08-26T13:19:25.768Z,33.88
2022-08-26T13:21:57.715Z,34.51
2022-08-26T13:24:44.268Z,34.98
2022-08-26T13:27:15.065Z,34.98
2022-08-26T13:29:43.155Z,35.04
2022-08-26T13:32:11.340Z,35.20
2022-08-26T13:34:40.211Z,34.92
2022-08-26T13:37:08.354Z,35.32
2022-08-26T13:39:36.940Z,35.74
2022-08-26T13:42:05.524Z,35.70
2022-08-26T13:44:33.755Z,35.78
2022-08-26T13:47:01.846Z,35.11
2022-08-26T13:49:30.138Z,35.52
2022-08-26T13:51:58.193Z,34.90
2022-08-26T13:54:26.286Z,35.67
2022-08-26T13:56:54.808Z,34.93
2022-08-26T13:59:22.836Z,35.39
2022-08-26T14:01:51.121Z,34.97
2022-08-26T14:04:20.772Z,35.22
2022-08-26T14:06:55.398Z,34.13
2022-08-26T14:09:24.153Z,34.17
2022-08-26T14:11:54.077Z,34.99
2022-08-26T14:14:23.745Z,34.54
2022-08-26T14:16:59.599Z,34.95
2022-08-26T14:19:31.655Z,35.19
2022-08-26T14:22:02.201Z,34.78
2022-08-26T14:24:30.493Z,34.40
2022-08-26T14:26:58.867Z,34.35
2022-08-26T14:29:27.680Z,34.62
2022-08-26T14:31:59.829Z,34.79
2022-08-26T14:34:28.470Z,35.30
2022-08-26T14:36:56.594Z,34.96
2022-08-26T14:39:25.490Z,34.96
2022-08-26T14:41:57.006Z,34.94
2022-08-26T14:44:32.967Z,35.36
2022-08-26T14:47:04.371Z,34.99
2022-08-26T14:49:32.717Z,35.05
2022-08-26T14:52:00.918Z,34.82
2022-08-26T14:54:29.873Z,34.81
2022-08-26T14:57:05.010Z,34.79
2022-08-26T14:59:41.054Z,34.37
2022-08-26T15:02:13.668Z,33.84
2022-08-26T15:04:50.790Z,34.20
2022-08-26T15:07:20.532Z,34.50
2022-08-26T15:09:48.839Z,34.34
2022-08-26T15:12:17.122Z,34.00
2022-08-26T15:14:45.416Z,34.15
2022-08-26T15:17:13.637Z,34.36
2022-08-26T15:19:41.837Z,34.13
2022-08-26T15:22:10.531Z,34.51
2022-08-26T15:24:41.583Z,34.84
2022-08-26T15:27:10.114Z,34.85
2022-08-26T15:29:42.038Z,34.76
2022-08-26T15:32:10.292Z,34.46
2022-08-26T15:34:39.166Z,34.46
2022-08-26T15:37:07.724Z,34.24
2022-08-26T15:39:35.987Z,33.96
2022-08-26T15:42:04.822Z,33.89
2022-08-26T15:44:34.351Z,34.06
2022-08-26T15:47:02.654Z,33.94
2022-08-26T15:49:32.387Z,33.84
2022-08-26T15:52:00.379Z,33.31
2022-08-26T15:54:28.535Z,33.38
2022-08-26T15:56:57.602Z,33.48
2022-08-26T15:59:26.871Z,33.21
2022-08-26T16:01:55.544Z,33.40
2022-08-26T16:04:23.987Z,33.20
2022-08-26T16:06:53.487Z,33.21
2022-08-26T16:09:27.392Z,33.06
2022-08-26T16:11:56.427Z,32.99
2022-08-26T16:14:25.404Z,32.80
2022-08-26T16:16:54.048Z,32.77
2022-08-26T16:19:22.380Z,32.13
2022-08-26T16:21:51.805Z,32.01
2022-08-26T16:24:28.454Z,31.62
2022-08-26T16:27:00.067Z,31.80
2022-08-26T16:29:28.965Z,31.80
2022-08-26T16:31:57.112Z,31.43
2022-08-26T16:34:25.196Z,31.54
2022-08-26T16:36:53.695Z,31.60
2022-08-26T16:39:22.850Z,31.42
2022-08-26T16:41:51.088Z,31.09
2022-08-26T16:44:19.593Z,30.71
2022-08-26T16:46:47.828Z,31.10
2022-08-26T16:49:16.078Z,30.95
2022-08-26T16:51:44.687Z,30.61
2022-08-26T16:54:13.196Z,30.70
2022-08-26T16:56:41.451Z,30.27
2022-08-26T16:59:11.887Z,30.47
2022-08-26T17:01:40.823Z,30.39
2022-08-26T17:04:11.082Z,30.17
2022-08-26T17:06:39.782Z,30.08
2022-08-26T17:09:08.423Z,29.59
2022-08-26T17:11:36.571Z,29.38
2022-08-26T17:14:06.416Z,29.04
2022-08-26T17:16:34.731Z,28.56
2022-08-26T17:19:04.638Z,28.12
2022-08-26T17:21:36.439Z,28.11
2022-08-26T17:24:06.874Z,27.80
2022-08-26T17:26:36.002Z,27.61
2022-08-26T17:29:07.569Z,27.40
2022-08-26T17:31:35.934Z,27.08
2022-08-26T17:34:04.802Z,26.79
2022-08-26T17:36:32.937Z,26.58
2022-08-26T17:39:01.762Z,26.71
2022-08-26T17:41:30.182Z,26.61
2022-08-26T17:43:58.626Z,26.45
2022-08-26T17:46:27.156Z,26.35
2022-08-26T17:48:55.430Z,26.17
2022-08-26T17:51:24.538Z,25.97
2022-08-26T17:53:53.616Z,25.74
2022-08-26T17:56:30.075Z,25.59
2022-08-26T17:59:02.868Z,25.55
2022-08-26T18:01:33.442Z,25.16
2022-08-26T18:04:03.902Z,25.26
2022-08-26T18:06:32.683Z,25.21
2022-08-26T18:09:02.125Z,24.57
2022-08-26T18:11:32.916Z,24.82
2022-08-26T18:14:01.123Z,24.51
2022-08-26T18:16:34.412Z,24.25
2022-08-26T18:19:02.702Z,24.11
2022-08-26T18:21:31.135Z,24.03
2022-08-26T18:23:59.855Z,24.01
2022-08-26T18:26:40.905Z,23.88
2022-08-26T18:29:09.362Z,23.75
2022-08-26T18:31:37.683Z,23.69
2022-08-26T18:34:05.792Z,23.38
2022-08-26T18:36:37.214Z,23.32
2022-08-26T18:39:06.331Z,23.20
2022-08-26T18:41:44.359Z,23.02
2022-08-26T18:44:14.406Z,22.94
2022-08-26T18:46:43.243Z,22.79
2022-08-26T18:49:21.289Z,22.73
2022-08-26T18:51:51.261Z,22.73
2022-08-26T18:56:53.783Z,22.65
2022-08-26T18:59:30.280Z,22.52
2022-08-26T19:01:59.450Z,22.46
2022-08-26T19:04:28.039Z,22.34
2022-08-26T19:06:56.228Z,22.28
2022-08-26T19:09:27.275Z,22.31
2022-08-26T19:14:30.166Z,21.88
2022-08-26T19:16:58.544Z,21.61
2022-08-26T19:19:27.000Z,21.41
2022-08-26T19:21:55.698Z,21.59
2022-08-26T19:24:27.290Z,21.85
2022-08-26T19:27:01.247Z,21.76
2022-08-26T19:29:35.444Z,21.69
2022-08-26T19:32:04.713Z,21.68
2022-08-26T19:34:32.859Z,21.59
2022-08-26T19:37:01.072Z,21.47
2022-08-26T19:39:29.656Z,21.49
2022-08-26T19:42:00.586Z,21.52
2022-08-26T19:44:48.369Z,20.88
2022-08-26T19:47:16.792Z,21.05
2022-08-26T19:49:45.848Z,20.90
2022-08-26T19:52:15.125Z,20.98
2022-08-26T19:54:46.057Z,20.70
2022-08-26T19:57:14.428Z,20.97
2022-08-26T19:59:43.407Z,20.86
2022-08-26T20:02:12.262Z,20.28
2022-08-26T20:04:46.602Z,20.87
2022-08-26T20:07:18.587Z,20.82
2022-08-26T20:09:49.430Z,20.75
2022-08-26T20:12:18.833Z,20.45
2022-08-26T20:14:47.422Z,20.54
2022-08-26T20:17:17.366Z,20.10
2022-08-26T20:20:04.209Z,20.31
2022-08-26T20:22:33.981Z,19.95
2022-08-26T20:25:02.295Z,20.07
2022-08-26T20:27:37.718Z,19.63
2022-08-26T20:30:09.354Z,19.95
2022-08-26T20:32:39.957Z,19.91
2022-08-26T20:35:13.489Z,19.84
2022-08-26T20:37:42.494Z,19.69
2022-08-26T20:40:13.893Z,19.73
2022-08-26T20:42:42.710Z,19.41
2022-08-26T20:45:11.400Z,19.60
2022-08-26T20:47:40.077Z,19.09
2022-08-26T20:50:09.086Z,19.24
2022-08-26T20:52:37.222Z,19.47
2022-08-26T20:55:06.034Z,19.44
2022-08-26T20:57:34.163Z,19.31
2022-08-26T21:00:02.584Z,19.42
2022-08-26T21:02:30.968Z,19.31
2022-08-26T21:05:00.315Z,19.28
2022-08-26T21:07:30.412Z,19.26
2022-08-26T21:09:58.562Z,19.23
2022-08-26T21:12:27.729Z,19.27
2022-08-26T21:14:55.992Z,19.20
2022-08-26T21:17:24.075Z,19.15
2022-08-26T21:19:52.272Z,19.02
2022-08-26T21:22:21.264Z,19.03
2022-08-26T21:24:49.476Z,18.94
2022-08-26T21:27:21.321Z,18.90
2022-08-26T21:29:54.698Z,18.82
2022-08-26T21:32:23.145Z,18.78
2022-08-26T21:34:56.281Z,18.74
2022-08-26T21:37:25.844Z,18.65
2022-08-26T21:39:56.348Z,18.45
2022-08-26T21:42:26.896Z,18.51
2022-08-26T21:44:56.252Z,18.35
2022-08-26T21:47:25.117Z,18.14
2022-08-26T21:49:56.728Z,18.36
2022-08-26T21:52:24.974Z,18.35
2022-08-26T21:54:59.052Z,18.01
2022-08-26T21:57:29.261Z,17.98
2022-08-26T21:59:57.756Z,18.05
2022-08-26T22:02:26.005Z,17.81
2022-08-26T22:04:54.225Z,17.69
2022-08-26T22:07:22.458Z,17.76
2022-08-26T22:09:50.823Z,17.86
2022-08-26T22:12:19.255Z,17.91
2022-08-26T22:14:48.050Z,17.59
2022-08-26T22:17:17.166Z,17.72
2022-08-26T22:19:46.365Z,17.67
2022-08-26T22:22:15.460Z,17.45
2022-08-26T22:24:44.002Z,17.69
2022-08-26T22:27:13.366Z,17.82
2022-08-26T22:29:41.702Z,17.52
2022-08-26T22:32:10.226Z,17.74
2022-08-26T22:34:38.781Z,17.24
2022-08-26T22:37:07.009Z,17.66
2022-08-26T22:39:35.285Z,17.63
2022-08-26T22:42:05.569Z,17.58
2022-08-26T22:44:36.660Z,17.25
2022-08-26T22:47:04.852Z,17.42
2022-08-26T22:49:33.067Z,17.03
2022-08-26T22:52:01.272Z,16.94
2022-08-26T22:54:29.356Z,17.25
2022-08-26T22:56:57.615Z,16.99
2022-08-26T22:59:25.856Z,16.92
2022-08-26T23:01:53.944Z,16.97
2022-08-26T23:04:22.362Z,16.70
2022-08-26T23:06:51.829Z,16.77
2022-08-26T23:09:20.381Z,16.94
2022-08-26T23:11:50.584Z,16.93
2022-08-26T23:14:19.577Z,16.55
2022-08-26T23:16:48.067Z,16.44
2022-08-26T23:19:19.650Z,16.39
2022-08-26T23:21:48.433Z,16.59
2022-08-26T23:24:17.652Z,16.39
2022-08-26T23:26:46.922Z,16.45
2022-08-26T23:29:17.328Z,16.51
2022-08-26T23:31:45.751Z,16.27
2022-08-26T23:34:32.830Z,16.43
2022-08-26T23:37:01.412Z,16.49
2022-08-26T23:39:32.804Z,16.46
2022-08-26T23:42:01.891Z,16.43
2022-08-26T23:44:31.156Z,16.22
2022-08-26T23:47:00.149Z,15.98
2022-08-26T23:49:29.096Z,15.61
2022-08-26T23:52:16.121Z,15.80
2022-08-26T23:54:44.882Z,15.81
2022-08-26T23:57:13.120Z,15.76
2022-08-26T23:59:41.777Z,15.36
